Time;durP1;ratioP1;P1;durP2;ratioP2;P2;SDS_P1;SDS_P2;PMS_P1;PMS_P2;Temp;Humidity;BMP_temperature;BMP_pressure;BME280_temperature;BME280_humidity;BME280_pressure;Samples;Min_cycle;Max_cycle;Signal;HPM_P1;HPM_P2
2024/02/09 00:00:45;;;;;;;8.15;3.40;;;;;;;;;;5055089;28;20567;-59
2024/02/09 00:03:11;;;;;;;11.45;3.65;;;;;;;;;;5055432;28;20455;-59
2024/02/09 00:05:37;;;;;;;7.55;2.88;;;;;;;;;;5055131;28;20027;-58
2024/02/09 00:08:04;;;;;;;11.55;2.90;;;;;;;;;;5055435;28;20052;-59
2024/02/09 00:10:36;;;;;;;7.38;2.95;;;;;;;;;;5055094;28;20427;-58
2024/02/09 00:13:04;;;;;;;10.23;2.55;;;;;;;;;;5055938;28;20033;-59
2024/02/09 00:15:32;;;;;;;3.85;2.35;;;;;;;;;;5054983;28;20033;-58
2024/02/09 00:17:58;;;;;;;11.48;3.47;;;;;;;;;;5054318;28;20037;-59
2024/02/09 00:20:25;;;;;;;10.45;2.25;;;;;;;;;;5054821;28;20028;-58
2024/02/09 00:22:50;;;;;;;5.95;2.75;;;;;;;;;;5055005;28;20466;-59
2024/02/09 00:25:16;;;;;;;5.78;2.75;;;;;;;;;;5054456;28;20040;-58
2024/02/09 00:27:43;;;;;;;8.48;3.25;;;;;;;;;;5055448;28;20036;-59
2024/02/09 00:30:10;;;;;;;6.63;3.08;;;;;;;;;;5054712;28;20360;-59
2024/02/09 00:32:36;;;;;;;7.75;3.28;;;;;;;;;;5055231;28;20036;-58
2024/02/09 00:35:03;;;;;;;10.73;3.70;;;;;;;;;;5054660;28;20021;-58
2024/02/09 00:37:29;;;;;;;6.53;3.40;;;;;;;;;;5055129;28;20446;-58
2024/02/09 00:39:55;;;;;;;9.90;3.17;;;;;;;;;;5055081;28;20079;-57
2024/02/09 00:42:21;;;;;;;9.60;3.75;;;;;;;;;;5054491;28;20063;-58
2024/02/09 00:44:48;;;;;;;6.38;3.55;;;;;;;;;;5054985;28;20029;-59
2024/02/09 00:47:14;;;;;;;9.68;3.38;;;;;;;;;;5054931;28;20021;-58
2024/02/09 00:49:43;;;;;;;6.43;2.55;;;;;;;;;;5054968;28;20032;-59
2024/02/09 00:52:10;;;;;;;6.28;3.63;;;;;;;;;;5054340;28;20032;-59
2024/02/09 00:54:36;;;;;;;4.57;3.22;;;;;;;;;;5053939;28;20526;-58
2024/02/09 00:57:05;;;;;;;6.13;2.60;;;;;;;;;;5055265;28;20061;-58
2024/02/09 00:59:31;;;;;;;8.48;3.13;;;;;;;;;;5054957;28;20033;-59
2024/02/09 01:01:57;;;;;;;10.40;3.80;;;;;;;;;;5054708;28;20044;-59
2024/02/09 01:04:23;;;;;;;6.40;2.95;;;;;;;;;;5054604;28;20032;-59
2024/02/09 01:06:50;;;;;;;8.80;3.60;;;;;;;;;;5054270;28;20391;-59
2024/02/09 01:09:16;;;;;;;5.75;3.08;;;;;;;;;;5054414;28;20052;-58
2024/02/09 01:11:42;;;;;;;7.40;4.05;;;;;;;;;;5053987;28;20017;-59
2024/02/09 02:47:05;;;;;;;3.85;1.83;;;;;;;;;;5056591;28;20119;-59
2024/02/09 03:05:58;;;;;;;6.60;2.50;;;;;;;;;;5056365;28;20127;-59
2024/02/09 03:08:24;;;;;;;8.13;2.47;;;;;;;;;;5056751;28;20035;-59
2024/02/09 03:10:50;;;;;;;6.25;3.05;;;;;;;;;;5055866;28;20041;-59
2024/02/09 03:13:16;;;;;;;4.40;1.88;;;;;;;;;;5056120;28;20032;-59
2024/02/09 03:15:45;;;;;;;7.47;2.75;;;;;;;;;;5055999;28;20530;-59
2024/02/09 03:18:11;;;;;;;5.15;2.92;;;;;;;;;;5056875;28;20083;-59
2024/02/09 03:20:40;;;;;;;5.25;2.15;;;;;;;;;;5056197;28;20036;-58
2024/02/09 03:23:06;;;;;;;4.90;2.08;;;;;;;;;;5055883;28;20037;-59
2024/02/09 03:25:32;;;;;;;5.65;2.13;;;;;;;;;;5055937;28;20374;-59
2024/02/09 03:27:58;;;;;;;8.05;1.98;;;;;;;;;;5056408;28;20116;-59
2024/02/09 03:30:26;;;;;;;4.60;2.20;;;;;;;;;;5056088;28;20044;-59
2024/02/09 03:32:53;;;;;;;5.20;2.00;;;;;;;;;;5055520;28;20524;-59
2024/02/09 03:35:19;;;;;;;6.47;2.72;;;;;;;;;;5056237;28;20029;-59
2024/02/09 03:37:45;;;;;;;6.05;2.13;;;;;;;;;;5056222;28;20025;-59
2024/02/09 03:40:12;;;;;;;4.88;2.55;;;;;;;;;;5055173;28;20556;-59
2024/02/09 03:42:37;;;;;;;3.85;2.13;;;;;;;;;;5055555;28;20457;-59
2024/02/09 03:45:06;;;;;;;3.92;1.92;;;;;;;;;;5055765;28;20064;-59
2024/02/09 03:47:32;;;;;;;3.92;2.53;;;;;;;;;;5055424;28;20036;-59
2024/02/09 03:49:58;;;;;;;6.15;2.20;;;;;;;;;;5055840;28;20455;-59
2024/02/09 03:52:25;;;;;;;6.93;2.20;;;;;;;;;;5054305;28;20409;-59
2024/02/09 03:54:51;;;;;;;5.25;2.25;;;;;;;;;;5055426;28;20075;-59
2024/02/09 03:57:17;;;;;;;3.35;1.70;;;;;;;;;;5055926;28;20056;-59
2024/02/09 03:59:44;;;;;;;6.30;1.70;;;;;;;;;;5054877;28;20478;-57
2024/02/09 04:02:10;;;;;;;7.50;2.03;;;;;;;;;;5055100;28;20383;-59
2024/02/09 04:04:36;;;;;;;3.85;1.70;;;;;;;;;;5055146;28;20029;-59
2024/02/09 04:07:05;;;;;;;2.38;1.40;;;;;;;;;;5054388;28;20375;-59
2024/02/09 04:09:32;;;;;;;6.97;2.78;;;;;;;;;;5055896;28;20037;-59
2024/02/09 04:11:58;;;;;;;4.45;2.03;;;;;;;;;;5054950;28;20519;-59
2024/02/09 04:14:24;;;;;;;4.55;2.42;;;;;;;;;;5054922;28;20057;-59
2024/02/09 04:16:50;;;;;;;6.60;2.00;;;;;;;;;;5055439;28;20029;-59
2024/02/09 04:19:20;;;;;;;5.25;1.90;;;;;;;;;;5055150;28;20040;-59
2024/02/09 04:21:49;;;;;;;5.57;1.75;;;;;;;;;;5054661;28;20108;-59
2024/02/09 04:24:16;;;;;;;5.85;1.98;;;;;;;;;;5054619;28;20051;-59
2024/02/09 04:26:44;;;;;;;6.55;2.42;;;;;;;;;;5055172;28;20078;-59
2024/02/09 04:29:10;;;;;;;4.80;2.00;;;;;;;;;;5054647;28;20079;-59
2024/02/09 04:31:39;;;;;;;3.00;1.88;;;;;;;;;;5055111;28;20021;-59
2024/02/09 04:34:05;;;;;;;3.58;1.95;;;;;;;;;;5054430;28;20501;-59
2024/02/09 04:36:33;;;;;;;8.43;2.22;;;;;;;;;;5054520;28;20016;-59
2024/02/09 04:38:59;;;;;;;3.30;2.13;;;;;;;;;;5054352;28;20103;-59
2024/02/09 04:41:25;;;;;;;8.43;2.03;;;;;;;;;;5054661;28;20107;-59
2024/02/09 04:43:52;;;;;;;3.25;1.73;;;;;;;;;;5054122;28;20025;-59
2024/02/09 04:46:25;;;;;;;4.43;2.00;;;;;;;;;;5054328;28;20025;-59
2024/02/09 04:48:51;;;;;;;3.22;1.80;;;;;;;;;;5054338;28;20108;-59
2024/02/09 04:51:17;;;;;;;2.90;1.58;;;;;;;;;;5054534;28;20442;-59
2024/02/09 04:53:43;;;;;;;5.35;1.77;;;;;;;;;;5054192;28;20036;-58
2024/02/09 04:56:09;;;;;;;3.70;1.33;;;;;;;;;;5054124;28;20045;-59
2024/02/09 04:58:36;;;;;;;3.72;1.05;;;;;;;;;;5054655;28;20021;-59
2024/02/09 05:01:01;;;;;;;3.42;2.05;;;;;;;;;;5054047;28;20039;-59
2024/02/09 05:03:27;;;;;;;5.18;1.85;;;;;;;;;;5053868;28;20029;-58
2024/02/09 05:05:53;;;;;;;3.08;1.70;;;;;;;;;;5054367;28;20028;-58
2024/02/09 05:08:20;;;;;;;4.10;1.55;;;;;;;;;;5054394;28;20036;-59
2024/02/09 05:10:46;;;;;;;3.17;1.10;;;;;;;;;;5053965;28;20432;-58
2024/02/09 05:13:12;;;;;;;1.23;0.75;;;;;;;;;;5053962;28;20119;-59
2024/02/09 05:15:38;;;;;;;3.40;1.52;;;;;;;;;;5053945;28;20497;-59
2024/02/09 05:18:04;;;;;;;1.92;0.88;;;;;;;;;;5054332;28;20024;-59
2024/02/09 05:20:30;;;;;;;2.80;1.00;;;;;;;;;;5053911;28;20123;-58
2024/02/09 05:22:57;;;;;;;1.67;1.08;;;;;;;;;;5054145;28;20033;-59
2024/02/09 05:25:23;;;;;;;2.75;1.30;;;;;;;;;;5053790;28;20100;-59
2024/02/09 05:27:50;;;;;;;3.45;1.08;;;;;;;;;;5054592;28;20410;-58
2024/02/09 05:30:16;;;;;;;2.60;1.20;;;;;;;;;;5053749;28;20037;-58
2024/02/09 05:32:42;;;;;;;2.28;1.30;;;;;;;;;;5054163;28;20136;-58
2024/02/09 05:35:11;;;;;;;1.83;1.10;;;;;;;;;;5053614;28;20055;-59
2024/02/09 05:37:38;;;;;;;2.53;1.15;;;;;;;;;;5053527;28;20036;-58
2024/02/09 05:40:04;;;;;;;2.25;0.90;;;;;;;;;;5053174;28;20079;-59
2024/02/09 05:42:30;;;;;;;2.97;1.00;;;;;;;;;;5053816;28;20033;-59
2024/02/09 05:44:56;;;;;;;1.83;0.88;;;;;;;;;;5053460;28;20025;-58
2024/02/09 05:47:22;;;;;;;2.53;1.10;;;;;;;;;;5054165;28;20346;-59
2024/02/09 05:49:48;;;;;;;2.78;0.73;;;;;;;;;;5053985;28;20530;-59
2024/02/09 05:52:15;;;;;;;2.22;0.90;;;;;;;;;;5053836;28;20344;-59
2024/02/09 05:54:42;;;;;;;2.20;0.85;;;;;;;;;;5053299;28;20021;-58
2024/02/09 05:57:07;;;;;;;3.97;0.80;;;;;;;;;;5053931;28;20418;-58
2024/02/09 05:59:33;;;;;;;1.80;0.80;;;;;;;;;;5054095;28;20071;-58
2024/02/09 06:02:00;;;;;;;1.33;0.77;;;;;;;;;;5053859;28;20037;-58
2024/02/09 06:04:26;;;;;;;1.75;0.90;;;;;;;;;;5053237;28;20455;-59
2024/02/09 06:06:53;;;;;;;2.13;1.10;;;;;;;;;;5053261;28;20386;-59
2024/02/09 06:09:19;;;;;;;2.15;1.25;;;;;;;;;;5053977;28;20033;-58
2024/02/09 06:11:45;;;;;;;1.35;0.70;;;;;;;;;;5053215;28;20455;-58
2024/02/09 06:14:11;;;;;;;2.80;1.10;;;;;;;;;;5053814;28;20355;-58
2024/02/09 06:16:38;;;;;;;1.55;0.85;;;;;;;;;;5055099;28;20025;-58
2024/02/09 06:19:04;;;;;;;1.70;0.95;;;;;;;;;;5056991;28;20033;-59
2024/02/09 06:21:31;;;;;;;1.70;0.73;;;;;;;;;;5057245;28;20490;-60
2024/02/09 06:23:57;;;;;;;1.23;0.63;;;;;;;;;;5057940;28;20024;-58
2024/02/09 06:26:23;;;;;;;0.77;0.50;;;;;;;;;;5056780;28;20033;-58
2024/02/09 06:28:49;;;;;;;0.73;0.35;;;;;;;;;;5057074;28;20025;-58
2024/02/09 06:31:24;;;;;;;0.88;0.40;;;;;;;;;;5057226;28;20031;-58
2024/02/09 06:33:50;;;;;;;2.28;0.70;;;;;;;;;;5056871;28;20541;-58
2024/02/09 06:36:16;;;;;;;2.22;0.65;;;;;;;;;;5057333;28;20025;-58
2024/02/09 06:38:42;;;;;;;2.55;0.88;;;;;;;;;;5057484;28;20044;-58
2024/02/09 06:41:11;;;;;;;1.30;0.60;;;;;;;;;;5056600;28;20405;-57
2024/02/09 06:43:38;;;;;;;3.42;0.80;;;;;;;;;;5056778;28;20033;-58
2024/02/09 06:46:04;;;;;;;0.73;0.32;;;;;;;;;;5057299;28;20032;-58
2024/02/09 06:48:30;;;;;;;1.27;0.60;;;;;;;;;;5057082;28;20032;-58
2024/02/09 06:50:56;;;;;;;0.98;0.55;;;;;;;;;;5056614;28;20029;-58
2024/02/09 06:53:22;;;;;;;2.38;0.80;;;;;;;;;;5057101;28;20079;-58
2024/02/09 06:55:53;;;;;;;2.28;0.77;;;;;;;;;;5056655;28;20378;-58
2024/02/09 06:58:23;;;;;;;0.52;0.30;;;;;;;;;;5057108;28;20025;-57
2024/02/09 07:00:52;;;;;;;1.42;0.38;;;;;;;;;;5056710;28;20033;-58
2024/02/09 07:03:18;;;;;;;1.50;0.55;;;;;;;;;;5056276;28;20442;-58
2024/02/09 07:05:44;;;;;;;2.47;1.00;;;;;;;;;;5056705;28;20025;-58
2024/02/09 07:08:10;;;;;;;2.85;0.60;;;;;;;;;;5056820;28;20052;-58
2024/02/09 07:10:36;;;;;;;1.10;0.70;;;;;;;;;;5057015;28;20460;-58
2024/02/09 07:13:02;;;;;;;1.33;0.90;;;;;;;;;;5056100;28;20024;-58
2024/02/09 07:15:30;;;;;;;2.17;0.70;;;;;;;;;;5056986;28;20025;-58
2024/02/09 07:17:56;;;;;;;2.45;0.50;;;;;;;;;;5056555;28;20029;-58
2024/02/09 07:20:23;;;;;;;2.72;1.10;;;;;;;;;;5056187;28;20021;-58
2024/02/09 07:22:49;;;;;;;2.13;0.88;;;;;;;;;;5056060;28;20099;-58
2024/02/09 07:25:15;;;;;;;2.20;1.02;;;;;;;;;;5056302;28;20060;-58
2024/02/09 07:27:41;;;;;;;1.83;0.70;;;;;;;;;;5056189;28;20029;-58
2024/02/09 07:30:07;;;;;;;1.90;0.68;;;;;;;;;;5055846;28;20123;-58
2024/02/09 07:32:33;;;;;;;2.13;0.65;;;;;;;;;;5055332;28;20497;-58
2024/02/09 07:35:01;;;;;;;1.75;0.90;;;;;;;;;;5056315;28;20116;-58
2024/02/09 07:37:27;;;;;;;2.97;0.95;;;;;;;;;;5055722;28;20029;-59
2024/02/09 07:39:53;;;;;;;1.48;0.60;;;;;;;;;;5056012;28;20082;-58
2024/02/09 07:42:46;;;;;;;0.98;0.40;;;;;;;;;;5055597;28;20305;-58
2024/02/09 07:45:15;;;;;;;1.58;0.60;;;;;;;;;;5052281;28;20036;-58
2024/02/09 07:47:41;;;;;;;1.33;0.75;;;;;;;;;;5056071;28;20471;-57
2024/02/09 07:50:07;;;;;;;3.05;0.80;;;;;;;;;;5055565;28;20040;-57
2024/02/09 07:52:35;;;;;;;5.72;1.15;;;;;;;;;;5055693;28;20091;-58
2024/02/09 07:55:01;;;;;;;1.92;0.70;;;;;;;;;;5055958;28;20033;-58
2024/02/09 07:57:27;;;;;;;1.13;0.60;;;;;;;;;;5055207;28;20048;-59
2024/02/09 07:59:53;;;;;;;2.08;0.75;;;;;;;;;;5055766;28;20112;-58
2024/02/09 08:02:19;;;;;;;1.48;0.70;;;;;;;;;;5055346;28;20040;-58
2024/02/09 08:04:45;;;;;;;2.70;0.93;;;;;;;;;;5055767;28;20026;-58
2024/02/09 08:07:11;;;;;;;1.77;0.95;;;;;;;;;;5055392;28;20112;-57
2024/02/09 08:09:37;;;;;;;4.15;0.90;;;;;;;;;;5055196;28;20044;-57
2024/02/09 08:12:03;;;;;;;3.88;0.90;;;;;;;;;;5055286;28;20028;-57
2024/02/09 08:14:34;;;;;;;2.08;0.80;;;;;;;;;;5055688;28;20029;-57
2024/02/09 08:17:00;;;;;;;1.00;0.60;;;;;;;;;;5055850;28;20367;-57
2024/02/09 08:19:26;;;;;;;3.65;1.10;;;;;;;;;;5055100;28;20028;-56
2024/02/09 08:21:51;;;;;;;0.90;0.43;;;;;;;;;;5055132;28;20459;-57
2024/02/09 08:24:17;;;;;;;2.92;0.90;;;;;;;;;;5055415;28;20051;-57
2024/02/09 08:26:43;;;;;;;1.23;0.63;;;;;;;;;;5054677;28;20036;-57
2024/02/09 08:29:09;;;;;;;2.55;1.20;;;;;;;;;;5054941;28;20033;-57
2024/02/09 08:31:35;;;;;;;2.38;1.10;;;;;;;;;;5054799;28;20025;-57
2024/02/09 08:34:01;;;;;;;2.55;1.13;;;;;;;;;;5054636;28;20041;-57
2024/02/09 08:36:28;;;;;;;1.75;0.68;;;;;;;;;;5054716;28;20025;-57
2024/02/09 08:38:54;;;;;;;2.55;0.77;;;;;;;;;;5054782;28;20050;-57
2024/02/09 08:41:20;;;;;;;2.38;0.90;;;;;;;;;;5054554;28;20029;-57
2024/02/09 08:43:46;;;;;;;1.35;0.68;;;;;;;;;;5054247;28;20087;-57
2024/02/09 08:46:13;;;;;;;1.15;0.57;;;;;;;;;;5054471;28;20029;-56
2024/02/09 08:48:39;;;;;;;5.18;0.75;;;;;;;;;;5055051;28;20029;-57
2024/02/09 08:51:05;;;;;;;1.40;0.65;;;;;;;;;;5054859;28;20332;-56
2024/02/09 08:53:31;;;;;;;1.60;0.88;;;;;;;;;;5054671;28;20060;-57
2024/02/09 08:55:57;;;;;;;1.40;0.80;;;;;;;;;;5054575;28;20048;-58
2024/02/09 08:58:23;;;;;;;1.92;0.88;;;;;;;;;;5054302;28;20025;-57
2024/02/09 09:00:49;;;;;;;4.50;0.85;;;;;;;;;;5054239;28;20040;-58
2024/02/09 09:03:16;;;;;;;0.95;0.47;;;;;;;;;;5054273;28;20037;-57
2024/02/09 09:05:43;;;;;;;3.35;1.15;;;;;;;;;;5054550;28;20032;-57
2024/02/09 09:08:10;;;;;;;1.35;0.70;;;;;;;;;;5054811;28;20044;-57
2024/02/09 09:10:38;;;;;;;1.33;0.70;;;;;;;;;;5054352;28;20078;-57
2024/02/09 09:13:10;;;;;;;2.20;0.88;;;;;;;;;;5053981;28;20029;-57
2024/02/09 09:15:37;;;;;;;1.52;0.70;;;;;;;;;;5054281;28;20079;-57
2024/02/09 09:18:03;;;;;;;1.02;0.57;;;;;;;;;;5054922;28;20340;-57
2024/02/09 09:20:29;;;;;;;2.97;0.98;;;;;;;;;;5053627;28;20096;-58
2024/02/09 09:22:58;;;;;;;2.97;1.25;;;;;;;;;;5053926;28;20028;-57
2024/02/09 09:25:24;;;;;;;3.58;0.90;;;;;;;;;;5053793;28;20013;-57
2024/02/09 09:27:50;;;;;;;3.03;1.20;;;;;;;;;;5054057;28;20028;-57
2024/02/09 09:30:19;;;;;;;2.17;0.77;;;;;;;;;;5054299;28;20063;-58
2024/02/09 09:32:45;;;;;;;1.42;0.50;;;;;;;;;;5053986;28;20063;-58
2024/02/09 09:35:10;;;;;;;3.53;0.90;;;;;;;;;;5054163;28;20025;-57
2024/02/09 09:37:37;;;;;;;1.35;0.60;;;;;;;;;;5053696;28;20090;-56
2024/02/09 09:40:03;;;;;;;1.95;0.60;;;;;;;;;;5053523;28;20124;-57
2024/02/09 09:42:29;;;;;;;1.27;0.50;;;;;;;;;;5053656;28;20033;-58
2024/02/09 09:44:55;;;;;;;1.25;0.63;;;;;;;;;;5053544;28;20025;-58
2024/02/09 09:47:22;;;;;;;2.05;0.88;;;;;;;;;;5054058;28;20402;-57
2024/02/09 09:49:48;;;;;;;1.50;0.70;;;;;;;;;;5054394;28;20028;-57
2024/02/09 09:52:33;;;;;;;2.30;1.02;;;;;;;;;;5056805;28;20476;-57
2024/02/09 09:55:01;;;;;;;1.95;1.02;;;;;;;;;;5058010;28;20070;-58
2024/02/09 09:57:27;;;;;;;2.40;0.93;;;;;;;;;;5058497;28;20049;-57
2024/02/09 09:59:53;;;;;;;4.03;0.80;;;;;;;;;;5058058;28;20033;-58
2024/02/09 10:02:23;;;;;;;1.40;0.60;;;;;;;;;;5057490;28;20036;-57
2024/02/09 10:04:49;;;;;;;2.90;0.63;;;;;;;;;;5057612;28;20032;-58
2024/02/09 10:07:19;;;;;;;3.65;0.68;;;;;;;;;;5057494;28;20025;-56
2024/02/09 10:09:45;;;;;;;2.70;0.87;;;;;;;;;;5058409;28;20036;-57
2024/02/09 10:12:12;;;;;;;0.90;0.45;;;;;;;;;;5057451;28;20021;-56
2024/02/09 10:14:39;;;;;;;1.67;0.68;;;;;;;;;;5058087;28;20029;-57
2024/02/09 10:17:06;;;;;;;2.30;1.40;;;;;;;;;;5057329;28;20044;-58
2024/02/09 10:19:34;;;;;;;1.42;0.70;;;;;;;;;;5057200;28;20029;-57
2024/02/09 10:22:00;;;;;;;1.35;0.50;;;;;;;;;;5057885;28;20035;-57
2024/02/09 10:24:26;;;;;;;1.85;0.80;;;;;;;;;;5057323;28;20025;-57
2024/02/09 10:26:52;;;;;;;1.88;0.68;;;;;;;;;;5057324;28;20029;-57
2024/02/09 10:29:18;;;;;;;5.38;0.70;;;;;;;;;;5057628;28;20409;-56
2024/02/09 10:31:45;;;;;;;1.45;0.85;;;;;;;;;;5057222;28;20370;-57
2024/02/09 10:34:12;;;;;;;1.00;0.43;;;;;;;;;;5057138;28;20115;-58
2024/02/09 10:36:40;;;;;;;0.98;0.50;;;;;;;;;;5057548;28;20363;-58
2024/02/09 10:39:07;;;;;;;1.98;0.60;;;;;;;;;;5057544;28;20356;-58
2024/02/09 10:41:34;;;;;;;1.33;0.60;;;;;;;;;;5057285;28;20069;-58
2024/02/09 10:44:00;;;;;;;2.70;1.00;;;;;;;;;;5056929;28;20355;-58
2024/02/09 10:46:28;;;;;;;1.35;0.70;;;;;;;;;;5057146;28;20466;-57
2024/02/09 10:48:57;;;;;;;3.55;0.85;;;;;;;;;;5057320;28;20455;-57
2024/02/09 10:51:27;;;;;;;2.30;0.90;;;;;;;;;;5057518;28;20398;-55
2024/02/09 10:54:11;;;;;;;1.48;0.85;;;;;;;;;;5057188;28;20087;-57
2024/02/09 10:56:38;;;;;;;2.45;0.90;;;;;;;;;;5056720;28;20076;-58
2024/02/09 10:59:05;;;;;;;4.32;1.02;;;;;;;;;;5056886;28;20343;-58
2024/02/09 11:01:33;;;;;;;5.95;0.95;;;;;;;;;;5056754;28;20025;-57
2024/02/09 11:03:59;;;;;;;2.25;0.75;;;;;;;;;;5056364;28;20025;-57
2024/02/09 11:06:25;;;;;;;1.25;0.60;;;;;;;;;;5056631;28;20029;-57
2024/02/09 11:08:51;;;;;;;1.65;0.75;;;;;;;;;;5056962;28;20032;-57
2024/02/09 11:11:17;;;;;;;1.70;0.70;;;;;;;;;;5056527;28;20028;-57
2024/02/09 11:13:43;;;;;;;1.17;0.60;;;;;;;;;;5056328;28;20025;-57
2024/02/09 11:16:09;;;;;;;1.50;0.60;;;;;;;;;;5056477;28;20036;-57
2024/02/09 11:18:37;;;;;;;1.55;0.50;;;;;;;;;;5056671;28;20032;-59
2024/02/09 11:21:04;;;;;;;1.10;0.40;;;;;;;;;;5056290;28;20097;-56
2024/02/09 11:23:33;;;;;;;2.83;0.88;;;;;;;;;;5056049;28;20394;-57
2024/02/09 11:26:01;;;;;;;1.08;0.60;;;;;;;;;;5056441;28;20099;-58
2024/02/09 11:28:27;;;;;;;1.50;0.70;;;;;;;;;;5056550;28;20156;-57
2024/02/09 11:30:54;;;;;;;3.72;0.98;;;;;;;;;;5056527;28;20071;-57
2024/02/09 11:33:21;;;;;;;1.60;0.70;;;;;;;;;;5056220;28;20035;-57
2024/02/09 11:35:48;;;;;;;1.80;0.57;;;;;;;;;;5056259;28;20032;-57
2024/02/09 11:38:19;;;;;;;1.80;0.75;;;;;;;;;;5056377;28;20025;-58
2024/02/09 11:40:45;;;;;;;3.20;1.55;;;;;;;;;;5056205;28;20075;-57
2024/02/09 11:43:11;;;;;;;1.10;0.63;;;;;;;;;;5056368;28;20029;-58
2024/02/09 11:45:39;;;;;;;1.15;0.50;;;;;;;;;;5055629;28;20061;-59
2024/02/09 11:48:06;;;;;;;2.20;0.50;;;;;;;;;;5056670;28;20088;-59
2024/02/09 11:50:32;;;;;;;2.08;1.02;;;;;;;;;;5055701;28;20055;-59
2024/02/09 11:53:08;;;;;;;2.95;0.77;;;;;;;;;;5054904;28;20070;-59
2024/02/09 11:55:39;;;;;;;1.42;0.80;;;;;;;;;;5055514;28;20135;-59
2024/02/09 11:58:06;;;;;;;2.08;0.73;;;;;;;;;;5055458;28;20028;-59
2024/02/09 12:00:32;;;;;;;2.33;0.82;;;;;;;;;;5055630;28;20067;-59
2024/02/09 12:02:58;;;;;;;1.00;0.43;;;;;;;;;;5055149;28;20073;-59
2024/02/09 12:05:24;;;;;;;0.70;0.30;;;;;;;;;;5055899;28;20371;-58
2024/02/09 12:07:50;;;;;;;1.38;0.60;;;;;;;;;;5055901;28;20439;-58
2024/02/09 12:10:17;;;;;;;1.35;0.60;;;;;;;;;;5055532;28;20522;-59
2024/02/09 12:12:43;;;;;;;0.93;0.50;;;;;;;;;;5055622;28;20082;-58
2024/02/09 12:15:09;;;;;;;1.70;0.43;;;;;;;;;;5054895;28;20387;-58
2024/02/09 12:17:35;;;;;;;1.95;0.88;;;;;;;;;;5055219;28;20021;-58
2024/02/09 12:20:08;;;;;;;2.08;0.77;;;;;;;;;;5054999;28;20029;-59
2024/02/09 12:22:36;;;;;;;4.18;0.75;;;;;;;;;;5055914;28;20446;-59
2024/02/09 12:25:04;;;;;;;2.22;0.80;;;;;;;;;;5055449;28;20033;-59
2024/02/09 12:27:31;;;;;;;2.25;1.00;;;;;;;;;;5055459;28;20028;-59
2024/02/09 12:29:56;;;;;;;1.40;0.70;;;;;;;;;;5055479;28;20060;-59
2024/02/09 12:32:22;;;;;;;1.23;0.68;;;;;;;;;;5055513;28;20067;-59
2024/02/09 12:34:51;;;;;;;1.23;0.50;;;;;;;;;;5054424;28;20029;-58
2024/02/09 12:37:18;;;;;;;1.88;1.08;;;;;;;;;;5055184;28;20021;-58
2024/02/09 12:39:53;;;;;;;2.30;1.05;;;;;;;;;;5055041;28;20367;-59
2024/02/09 12:42:21;;;;;;;2.17;0.93;;;;;;;;;;5054609;28;20029;-58
2024/02/09 12:44:49;;;;;;;1.30;0.70;;;;;;;;;;5054334;28;20437;-58
2024/02/09 12:47:16;;;;;;;1.27;0.80;;;;;;;;;;5054298;28;20021;-58
2024/02/09 12:49:43;;;;;;;1.98;0.85;;;;;;;;;;5054991;28;20063;-58
2024/02/09 12:52:14;;;;;;;1.30;0.75;;;;;;;;;;5054483;28;20096;-59
2024/02/09 12:54:40;;;;;;;1.55;0.68;;;;;;;;;;5055225;28;20052;-58
2024/02/09 12:57:08;;;;;;;2.05;0.77;;;;;;;;;;5054413;28;20064;-58
2024/02/09 12:59:37;;;;;;;4.47;1.30;;;;;;;;;;5054288;28;20024;-58
2024/02/09 13:02:07;;;;;;;2.70;0.73;;;;;;;;;;5054248;28;20036;-59
2024/02/09 13:04:34;;;;;;;1.48;0.73;;;;;;;;;;5054399;28;20052;-58
2024/02/09 13:07:01;;;;;;;3.83;0.60;;;;;;;;;;5054227;28;20065;-59
2024/02/09 13:09:26;;;;;;;2.42;1.05;;;;;;;;;;5054793;28;20445;-59
2024/02/09 13:11:53;;;;;;;0.98;0.50;;;;;;;;;;5052866;28;20060;-59
2024/02/09 13:14:19;;;;;;;1.77;0.95;;;;;;;;;;5054653;28;20033;-59
2024/02/09 13:16:48;;;;;;;3.92;1.25;;;;;;;;;;5054050;28;20489;-59
2024/02/09 13:19:22;;;;;;;1.45;0.77;;;;;;;;;;5054314;28;20036;-62
2024/02/09 13:21:53;;;;;;;2.28;1.40;;;;;;;;;;5054023;28;20455;-59
2024/02/09 13:24:20;;;;;;;2.53;0.82;;;;;;;;;;5054475;28;20057;-59
2024/02/09 13:26:50;;;;;;;1.90;0.88;;;;;;;;;;5054376;28;20029;-59
2024/02/09 13:29:15;;;;;;;3.22;0.95;;;;;;;;;;5054466;28;20025;-59
2024/02/09 13:31:41;;;;;;;2.67;1.00;;;;;;;;;;5053929;28;20348;-59
2024/02/09 13:34:07;;;;;;;2.33;0.68;;;;;;;;;;5054048;28;20400;-59
2024/02/09 13:36:33;;;;;;;2.67;0.70;;;;;;;;;;5054294;28;20052;-59
2024/02/09 13:38:59;;;;;;;3.30;1.02;;;;;;;;;;5054020;28;20340;-59
2024/02/09 13:41:25;;;;;;;2.25;0.90;;;;;;;;;;5054044;28;20064;-59
2024/02/09 13:43:53;;;;;;;2.58;1.15;;;;;;;;;;5053639;28;20044;-59
2024/02/09 13:46:19;;;;;;;3.05;1.52;;;;;;;;;;5052349;28;20028;-57
2024/02/09 13:48:49;;;;;;;3.17;1.25;;;;;;;;;;5054045;28;20021;-59
2024/02/09 13:51:16;;;;;;;1.48;0.73;;;;;;;;;;5054173;28;20055;-58
2024/02/09 13:53:42;;;;;;;1.88;1.00;;;;;;;;;;5054111;28;20422;-59
2024/02/09 13:56:08;;;;;;;4.38;1.58;;;;;;;;;;5053454;28;20045;-59
2024/02/09 13:58:35;;;;;;;1.15;0.57;;;;;;;;;;5054107;28;20029;-59
2024/02/09 14:01:01;;;;;;;2.92;1.50;;;;;;;;;;5053710;28;20037;-59
2024/02/09 14:03:27;;;;;;;4.32;1.05;;;;;;;;;;5053274;28;20136;-59
2024/02/09 14:05:53;;;;;;;2.63;0.85;;;;;;;;;;5053322;28;20029;-59
2024/02/09 14:08:20;;;;;;;2.45;0.95;;;;;;;;;;5053915;28;20029;-59
2024/02/09 14:10:47;;;;;;;4.75;1.17;;;;;;;;;;5053397;28;20033;-59
2024/02/09 14:13:13;;;;;;;4.95;1.30;;;;;;;;;;5053880;28;20025;-58
2024/02/09 14:15:39;;;;;;;3.67;1.75;;;;;;;;;;5053294;28;20036;-59
2024/02/09 14:18:05;;;;;;;6.15;1.08;;;;;;;;;;5053306;28;20374;-59
2024/02/09 14:20:32;;;;;;;2.08;1.02;;;;;;;;;;5053443;28;20079;-59
2024/02/09 14:22:59;;;;;;;1.30;0.70;;;;;;;;;;5053187;28;20029;-59
2024/02/09 14:25:25;;;;;;;3.33;1.40;;;;;;;;;;5053221;28;20103;-58
2024/02/09 14:27:52;;;;;;;2.65;1.08;;;;;;;;;;5053814;28;20040;-59
2024/02/09 14:30:20;;;;;;;2.38;1.20;;;;;;;;;;5053107;28;20032;-58
2024/02/09 14:32:46;;;;;;;2.10;1.08;;;;;;;;;;5053942;28;20029;-59
2024/02/09 14:35:12;;;;;;;1.73;1.05;;;;;;;;;;5052936;28;20485;-59
2024/02/09 14:37:38;;;;;;;1.80;0.93;;;;;;;;;;5055233;28;20025;-59
2024/02/09 14:40:05;;;;;;;3.80;1.25;;;;;;;;;;5056882;28;20061;-58
2024/02/09 14:42:31;;;;;;;2.28;0.90;;;;;;;;;;5056921;28;20025;-58
2024/02/09 14:44:58;;;;;;;3.88;1.25;;;;;;;;;;5056725;28;20032;-59
2024/02/09 14:47:25;;;;;;;1.80;0.85;;;;;;;;;;5057389;28;20419;-58
2024/02/09 14:49:51;;;;;;;2.60;0.95;;;;;;;;;;5057335;28;20111;-59
2024/02/09 14:52:20;;;;;;;1.70;0.80;;;;;;;;;;5056751;28;20075;-58
2024/02/09 14:54:46;;;;;;;1.88;0.65;;;;;;;;;;5056651;28;20024;-58
2024/02/09 14:57:13;;;;;;;3.30;0.98;;;;;;;;;;5057410;28;20355;-59
2024/02/09 14:59:39;;;;;;;1.92;1.10;;;;;;;;;;5057295;28;20090;-58
2024/02/09 15:02:06;;;;;;;2.08;1.15;;;;;;;;;;5056824;28;20375;-59
2024/02/09 15:04:39;;;;;;;1.23;0.57;;;;;;;;;;5057457;28;20032;-59
2024/02/09 15:07:05;;;;;;;2.13;1.15;;;;;;;;;;5056814;28;20025;-59
2024/02/09 15:09:31;;;;;;;3.17;1.33;;;;;;;;;;5056385;28;20112;-58
2024/02/09 15:11:59;;;;;;;3.53;1.40;;;;;;;;;;5056638;28;20053;-58
2024/02/09 15:14:26;;;;;;;2.63;1.50;;;;;;;;;;5056271;28;20024;-59
2024/02/09 15:16:55;;;;;;;2.17;1.10;;;;;;;;;;5056271;28;20029;-58
2024/02/09 15:19:21;;;;;;;2.00;1.30;;;;;;;;;;5056451;28;20018;-59
2024/02/09 15:21:50;;;;;;;3.72;1.40;;;;;;;;;;5056045;28;20083;-58
2024/02/09 15:24:17;;;;;;;4.78;1.67;;;;;;;;;;5056063;28;20114;-59
2024/02/09 15:26:44;;;;;;;3.83;1.75;;;;;;;;;;5056047;28;20120;-59
2024/02/09 15:29:10;;;;;;;3.05;1.67;;;;;;;;;;5056523;28;20095;-58
2024/02/09 15:31:37;;;;;;;2.35;1.15;;;;;;;;;;5056297;28;20400;-58
2024/02/09 15:34:03;;;;;;;3.22;1.30;;;;;;;;;;5055831;28;20029;-59
2024/02/09 15:36:31;;;;;;;3.65;1.83;;;;;;;;;;5055934;28;20110;-59
2024/02/09 15:38:57;;;;;;;3.45;1.95;;;;;;;;;;5055688;28;20021;-58
2024/02/09 15:41:23;;;;;;;3.28;1.67;;;;;;;;;;5055349;28;20032;-59
2024/02/09 15:43:52;;;;;;;3.38;2.17;;;;;;;;;;5055651;28;20017;-58
2024/02/09 15:46:19;;;;;;;2.33;1.23;;;;;;;;;;5055601;28;20069;-59
2024/02/09 15:48:52;;;;;;;1.92;1.08;;;;;;;;;;5054706;28;20029;-59
2024/02/09 15:51:25;;;;;;;3.85;1.23;;;;;;;;;;5056124;28;20029;-59
2024/02/09 15:53:52;;;;;;;2.20;1.40;;;;;;;;;;5055548;28;20422;-59
2024/02/09 15:56:21;;;;;;;3.28;1.80;;;;;;;;;;5055233;28;20151;-59
2024/02/09 15:58:47;;;;;;;3.92;1.75;;;;;;;;;;5055501;28;20033;-59
2024/02/09 16:01:13;;;;;;;2.38;1.30;;;;;;;;;;5055424;28;20037;-59
2024/02/09 16:03:42;;;;;;;3.33;1.33;;;;;;;;;;5055355;28;20032;-59
2024/02/09 16:06:08;;;;;;;2.63;1.48;;;;;;;;;;5055121;28;20028;-58
2024/02/09 16:08:36;;;;;;;3.40;1.85;;;;;;;;;;5055833;28;20506;-58
2024/02/09 16:11:02;;;;;;;3.03;1.67;;;;;;;;;;5054343;28;20459;-58
2024/02/09 16:13:28;;;;;;;3.25;1.85;;;;;;;;;;5055174;28;20108;-58
2024/02/09 16:15:54;;;;;;;3.20;1.77;;;;;;;;;;5055314;28;20529;-58
2024/02/09 16:18:22;;;;;;;4.35;2.00;;;;;;;;;;5055593;28;20024;-58
2024/02/09 16:20:48;;;;;;;2.88;1.58;;;;;;;;;;5055504;28;20037;-58
2024/02/09 16:23:14;;;;;;;3.55;2.42;;;;;;;;;;5054665;28;20032;-58
2024/02/09 16:25:40;;;;;;;2.10;1.30;;;;;;;;;;5054716;28;20112;-58
2024/02/09 16:28:06;;;;;;;2.72;1.73;;;;;;;;;;5055105;28;20028;-58
2024/02/09 16:30:33;;;;;;;2.67;1.65;;;;;;;;;;5055364;28;20037;-58